Time;durP1;ratioP1;P1;durP2;ratioP2;P2;SDS_P1;SDS_P2;PMS_P1;PMS_P2;Temp;Humidity;BMP_temperature;BMP_pressure;BME280_temperature;BME280_humidity;BME280_pressure;Samples;Min_cycle;Max_cycle;Signal;HPM_P1;HPM_P2
2021/10/26 00:00:27;;;;;;;;;;;;;;;6.55;78.74;96929.97;5074953;28;19954;-76
2021/10/26 00:02:53;;;;;;;;;;;;;;;6.56;79.42;96933.38;5074935;28;19956;-76
2021/10/26 00:05:18;;;;;;;;;;;;;;;6.57;79.44;96934.97;5074757;28;19962;-76
2021/10/26 00:07:44;;;;;;;;;;;;;;;6.59;79.29;96925.16;5074287;28;19972;-76
2021/10/26 00:10:12;;;;;;;;;;;;;;;6.61;79.67;96928.41;5074665;28;19958;-77
2021/10/26 00:12:38;;;;;;;;;;;;;;;6.61;79.79;96926.59;5074711;28;19978;-77
2021/10/26 00:15:04;;;;;;;;;;;;;;;6.64;80.50;96930.66;5074675;28;19952;-78
2021/10/26 00:17:30;;;;;;;;;;;;;;;6.64;80.34;96925.47;5073106;28;20348;-78
2021/10/26 00:19:56;;;;;;;;;;;;;;;6.65;80.53;96925.25;5075156;28;19954;-77
2021/10/26 00:22:22;;;;;;;;;;;;;;;6.67;80.39;96931.09;5074361;28;20046;-77
2021/10/26 00:24:48;;;;;;;;;;;;;;;6.69;80.58;96934.31;5074428;28;19959;-77
2021/10/26 00:27:14;;;;;;;;;;;;;;;6.71;80.58;96932.34;5074744;28;19951;-77
2021/10/26 00:29:40;;;;;;;;;;;;;;;6.77;81.20;96932.63;5074267;28;19965;-76
2021/10/26 00:32:06;;;;;;;;;;;;;;;6.79;81.07;96936.66;5074368;28;19971;-76
2021/10/26 00:34:32;;;;;;;;;;;;;;;6.83;81.31;96944.94;5074433;28;20321;-77
2021/10/26 00:36:58;;;;;;;;;;;;;;;6.87;81.40;96943.59;5074418;28;20006;-76
2021/10/26 00:39:24;;;;;;;;;;;;;;;6.91;81.28;96931.81;5074125;28;19954;-75
2021/10/26 00:41:50;;;;;;;;;;;;;;;6.94;81.24;96930.63;5074139;28;19962;-75
2021/10/26 00:44:16;;;;;;;;;;;;;;;6.96;81.22;96933.88;5073951;28;19946;-75
2021/10/26 00:46:42;;;;;;;;;;;;;;;6.97;81.40;96933.69;5074131;28;19955;-76
2021/10/26 00:49:11;;;;;;;;;;;;;;;6.98;81.18;96935.28;5073772;28;20377;-75
2021/10/26 00:51:38;;;;;;;;;;;;;;;7.00;81.27;96933.31;5073416;28;19971;-75
2021/10/26 00:54:05;;;;;;;;;;;;;;;7.02;80.95;96940.97;5074083;28;19961;-76
2021/10/26 00:56:32;;;;;;;;;;;;;;;7.05;80.86;96935.34;5074043;28;20327;-75
2021/10/26 00:58:58;;;;;;;;;;;;;;;7.05;81.13;96937.97;5072779;28;20335;-76
2021/10/26 01:01:24;;;;;;;;;;;;;;;7.06;81.02;96935.19;5073635;28;19958;-75
2021/10/26 01:03:50;;;;;;;;;;;;;;;7.10;81.46;96941.66;5073896;28;20021;-75
2021/10/26 01:06:17;;;;;;;;;;;;;;;7.11;81.69;96953.69;5073870;28;19955;-75
2021/10/26 01:08:43;;;;;;;;;;;;;;;7.13;82.09;96947.50;5073771;28;19966;-75
2021/10/26 01:11:09;;;;;;;;;;;;;;;7.13;82.02;96945.69;5073655;28;19972;-76
2021/10/26 01:13:35;;;;;;;;;;;;;;;7.15;81.91;96942.91;5073851;28;20043;-76
2021/10/26 01:16:02;;;;;;;;;;;;;;;7.16;81.78;96947.13;5074087;28;19964;-77
2021/10/26 01:18:28;;;;;;;;;;;;;;;7.18;81.97;96943.34;5073867;28;19956;-76
2021/10/26 01:20:54;;;;;;;;;;;;;;;7.18;81.75;96943.34;5073807;28;19964;-76
2021/10/26 01:23:21;;;;;;;;;;;;;;;7.20;81.79;96948.38;5072547;28;20410;-76
2021/10/26 01:25:47;;;;;;;;;;;;;;;7.22;81.48;96952.41;5073592;28;19980;-76
2021/10/26 01:28:13;;;;;;;;;;;;;;;7.24;81.83;96947.81;5072270;28;19960;-77
2021/10/26 01:30:40;;;;;;;;;;;;;;;7.25;82.13;96952.06;5073536;28;20465;-76
2021/10/26 01:33:06;;;;;;;;;;;;;;;7.26;81.74;96951.03;5073375;28;19960;-77
2021/10/26 01:35:34;;;;;;;;;;;;;;;7.28;81.42;96962.09;5074002;28;19976;-77
2021/10/26 01:38:00;;;;;;;;;;;;;;;7.28;81.49;96953.47;5073477;28;19947;-77
2021/10/26 01:40:26;;;;;;;;;;;;;;;7.29;82.37;96947.28;5073352;28;19954;-77
2021/10/26 01:42:52;;;;;;;;;;;;;;;7.29;82.28;96948.09;5073596;28;19955;-76
2021/10/26 01:45:18;;;;;;;;;;;;;;;7.30;83.00;96949.69;5073361;28;19955;-76
2021/10/26 01:47:44;;;;;;;;;;;;;;;7.32;83.19;96954.72;5073764;28;19961;-76
2021/10/26 01:50:11;;;;;;;;;;;;;;;7.32;82.69;96945.09;5073542;28;20318;-75
2021/10/26 01:52:37;;;;;;;;;;;;;;;7.33;83.44;96951.13;5073154;28;19976;-75
2021/10/26 01:55:04;;;;;;;;;;;;;;;7.32;83.65;96950.31;5073282;28;19965;-75
2021/10/26 01:57:31;;;;;;;;;;;;;;;7.34;83.85;96957.16;5077201;28;20332;-75
2021/10/26 01:59:57;;;;;;;;;;;;;;;7.35;83.84;96950.94;5064122;28;19977;-75
2021/10/26 02:02:26;;;;;;;;;;;;;;;7.39;84.17;96960.84;5077605;28;19964;-75
2021/10/26 02:04:52;;;;;;;;;;;;;;;7.38;84.40;96954.00;5077067;28;19958;-75
2021/10/26 02:07:18;;;;;;;;;;;;;;;7.40;84.19;96951.22;5077247;28;19944;-75
2021/10/26 02:09:44;;;;;;;;;;;;;;;7.41;84.38;96955.41;5077181;28;20000;-75
2021/10/26 02:12:10;;;;;;;;;;;;;;;7.40;84.44;96965.06;5076972;28;20007;-75
2021/10/26 02:14:36;;;;;;;;;;;;;;;7.42;84.78;96962.25;5077059;28;20395;-75
2021/10/26 02:17:04;;;;;;;;;;;;;;;7.42;84.50;96960.47;5075654;28;19956;-75
2021/10/26 02:19:30;;;;;;;;;;;;;;;7.44;84.82;96960.28;5077152;28;20442;-75
2021/10/26 02:21:56;;;;;;;;;;;;;;;7.45;85.01;96964.50;5076934;28;19966;-75
2021/10/26 02:24:22;;;;;;;;;;;;;;;7.44;85.30;96963.69;5076828;28;19962;-75
2021/10/26 02:26:48;;;;;;;;;;;;;;;7.44;85.40;96958.47;5076701;28;19963;-76
2021/10/26 02:29:14;;;;;;;;;;;;;;;7.46;85.04;96960.91;5076621;28;20419;-76
2021/10/26 02:31:40;;;;;;;;;;;;;;;7.44;85.29;96955.88;5076650;28;19966;-76
2021/10/26 02:34:06;;;;;;;;;;;;;;;7.46;84.93;96963.50;5077029;28;19960;-76
2021/10/26 02:36:32;;;;;;;;;;;;;;;7.47;85.04;96959.91;5076826;28;20033;-76
2021/10/26 02:38:58;;;;;;;;;;;;;;;7.47;85.16;96965.91;5076509;28;19957;-76
2021/10/26 02:41:24;;;;;;;;;;;;;;;7.48;85.20;96961.53;5076629;28;19963;-76
2021/10/26 02:43:50;;;;;;;;;;;;;;;7.49;85.47;96968.34;5075936;28;19953;-76
2021/10/26 02:46:16;;;;;;;;;;;;;;;7.50;85.57;96962.16;5076547;28;20013;-76
2021/10/26 02:48:43;;;;;;;;;;;;;;;7.50;85.89;96970.78;5076345;28;20046;-76
2021/10/26 02:51:09;;;;;;;;;;;;;;;7.51;85.64;96963.75;5076141;28;19958;-76
2021/10/26 02:53:36;;;;;;;;;;;;;;;7.49;85.73;96958.72;5076105;28;20453;-76
2021/10/26 02:56:02;;;;;;;;;;;;;;;7.49;85.67;96963.94;5076216;28;19982;-76
2021/10/26 02:58:28;;;;;;;;;;;;;;;7.49;85.35;96963.94;5076262;28;20329;-75
2021/10/26 03:00:54;;;;;;;;;;;;;;;7.49;84.99;96956.09;5076426;28;19960;-76
2021/10/26 03:03:20;;;;;;;;;;;;;;;7.48;85.26;96959.72;5076104;28;19989;-76
2021/10/26 03:05:46;;;;;;;;;;;;;;;7.48;85.29;96967.56;5075983;28;19964;-75
2021/10/26 03:08:12;;;;;;;;;;;;;;;7.47;84.86;96967.72;5074615;28;19964;-76
2021/10/26 03:10:38;;;;;;;;;;;;;;;7.45;84.92;96978.34;5076001;28;19963;-76
2021/10/26 03:13:04;;;;;;;;;;;;;;;7.42;84.95;96973.50;5075773;28;19978;-76
2021/10/26 03:15:30;;;;;;;;;;;;;;;7.43;85.13;96974.31;5076456;28;19966;-75
2021/10/26 03:17:57;;;;;;;;;;;;;;;7.42;85.14;96981.34;5075936;28;20016;-75
2021/10/26 03:20:23;;;;;;;;;;;;;;;7.42;84.95;96981.34;5074656;28;19956;-75
2021/10/26 03:22:49;;;;;;;;;;;;;;;7.41;85.09;96982.34;5076013;28;19959;-76
2021/10/26 03:25:16;;;;;;;;;;;;;;;7.40;85.04;96985.94;5075822;28;19964;-75
2021/10/26 03:27:42;;;;;;;;;;;;;;;7.40;85.01;96988.53;5075540;28;19958;-76
2021/10/26 03:30:09;;;;;;;;;;;;;;;7.38;85.03;96987.09;5075896;28;19958;-75
2021/10/26 03:32:35;;;;;;;;;;;;;;;7.37;84.86;96991.53;5075802;28;19980;-75
2021/10/26 03:35:01;;;;;;;;;;;;;;;7.37;84.99;96994.13;5074482;28;20322;-76
2021/10/26 03:37:27;;;;;;;;;;;;;;;7.38;85.03;96987.91;5075400;28;19970;-76
2021/10/26 03:39:56;;;;;;;;;;;;;;;7.37;86.27;96990.69;5075307;28;20328;-75
2021/10/26 03:42:23;;;;;;;;;;;;;;;7.34;85.41;96994.50;5075463;28;19958;-77
2021/10/26 03:44:49;;;;;;;;;;;;;;;7.33;85.02;96985.06;5075783;28;19950;-76
2021/10/26 03:47:15;;;;;;;;;;;;;;;7.32;85.24;96986.84;5075121;28;19949;-75
2021/10/26 03:49:41;;;;;;;;;;;;;;;7.32;85.04;96994.66;5075398;28;20372;-75
2021/10/26 03:52:07;;;;;;;;;;;;;;;7.32;85.01;96992.06;5074807;28;19971;-75
2021/10/26 03:54:33;;;;;;;;;;;;;;;7.33;85.25;97000.72;5075110;28;19966;-75
2021/10/26 03:56:59;;;;;;;;;;;;;;;7.30;84.98;96996.66;5075302;28;20022;-75
2021/10/26 03:59:32;;;;;;;;;;;;;;;7.30;84.92;96999.25;5075093;28;20412;-75
2021/10/26 04:02:01;;;;;;;;;;;;;;;7.30;84.82;96998.44;5075045;28;20441;-76
2021/10/26 04:04:27;;;;;;;;;;;;;;;7.29;84.52;96991.63;5075041;28;19972;-76
2021/10/26 04:06:52;;;;;;;;;;;;;;;7.27;84.65;96991.81;5074726;28;19954;-76
2021/10/26 04:09:25;;;;;;;;;;;;;;;7.27;84.26;96991.00;5075323;28;19990;-76
2021/10/26 04:11:54;;;;;;;;;;;;;;;7.25;84.20;96985.16;5074346;28;19995;-75
2021/10/26 04:14:20;;;;;;;;;;;;;;;7.25;84.37;96990.38;5073518;28;19955;-76
2021/10/26 04:16:46;;;;;;;;;;;;;;;7.24;84.18;96984.34;5074690;28;19966;-76
2021/10/26 04:19:12;;;;;;;;;;;;;;;7.24;84.50;96992.16;5074182;28;20002;-76
2021/10/26 04:21:38;;;;;;;;;;;;;;;7.25;84.54;97000.81;5074875;28;19974;-76
2021/10/26 04:24:04;;;;;;;;;;;;;;;7.23;85.08;96998.38;5074513;28;19956;-76
2021/10/26 04:26:30;;;;;;;;;;;;;;;7.23;84.73;97002.78;5073194;28;20041;-76
2021/10/26 04:28:56;;;;;;;;;;;;;;;7.22;84.80;97004.56;5074678;28;19948;-76
2021/10/26 04:31:22;;;;;;;;;;;;;;;7.21;84.81;97007.38;5074125;28;19966;-76
2021/10/26 04:33:48;;;;;;;;;;;;;;;7.20;85.41;97006.59;5074470;28;19962;-75
2021/10/26 04:36:14;;;;;;;;;;;;;;;7.20;85.27;97008.38;5074134;28;19953;-75
2021/10/26 04:38:39;;;;;;;;;;;;;;;7.21;85.13;97012.59;5074378;28;20027;-75
2021/10/26 04:41:08;;;;;;;;;;;;;;;7.21;85.04;97016.00;5074083;28;19955;-79
2021/10/26 04:43:34;;;;;;;;;;;;;;;7.22;85.35;97025.44;5074308;28;19960;-79
2021/10/26 04:46:01;;;;;;;;;;;;;;;7.21;85.37;97017.81;5074210;28;20020;-79
2021/10/26 04:48:27;;;;;;;;;;;;;;;7.23;85.46;97023.66;5072868;28;19969;-79
2021/10/26 04:50:53;;;;;;;;;;;;;;;7.23;85.39;97019.25;5074015;28;19959;-79
2021/10/26 04:53:20;;;;;;;;;;;;;;;7.24;85.32;97028.69;5074256;28;19983;-79
2021/10/26 04:55:48;;;;;;;;;;;;;;;7.24;85.56;97020.84;5063245;28;20264;-79
2021/10/26 04:58:14;;;;;;;;;;;;;;;7.25;85.64;97021.69;5073986;28;19952;-79
2021/10/26 05:00:40;;;;;;;;;;;;;;;7.26;85.48;97028.50;5072848;28;20014;-79
2021/10/26 05:03:06;;;;;;;;;;;;;;;7.24;85.39;97027.88;5073815;28;20478;-75
2021/10/26 05:05:32;;;;;;;;;;;;;;;7.23;85.30;97023.66;5073946;28;20312;-75
2021/10/26 05:07:58;;;;;;;;;;;;;;;7.23;85.24;97021.06;5073930;28;19954;-75
2021/10/26 05:10:24;;;;;;;;;;;;;;;7.22;85.46;97024.63;5073686;28;19957;-75
2021/10/26 05:12:50;;;;;;;;;;;;;;;7.21;85.46;97025.66;5073873;28;20333;-75
2021/10/26 05:15:16;;;;;;;;;;;;;;;7.20;85.60;97022.25;5073940;28;19955;-75
2021/10/26 05:17:42;;;;;;;;;;;;;;;7.20;85.80;97024.84;5073606;28;20330;-75
2021/10/26 05:20:10;;;;;;;;;;;;;;;7.20;85.59;97022.25;5074149;28;19953;-75
2021/10/26 05:22:36;;;;;;;;;;;;;;;7.22;86.06;97028.06;5073747;28;19968;-76
2021/10/26 05:25:02;;;;;;;;;;;;;;;7.22;86.08;97025.44;5072337;28;19957;-77
2021/10/26 05:27:28;;;;;;;;;;;;;;;7.23;86.01;97024.47;5073728;28;20291;-76
2021/10/26 05:29:54;;;;;;;;;;;;;;;7.24;86.16;97036.50;5073146;28;19971;-76
2021/10/26 05:32:20;;;;;;;;;;;;;;;7.25;86.00;97037.34;5073247;28;20447;-76
2021/10/26 05:34:46;;;;;;;;;;;;;;;7.25;86.45;97042.56;5073557;28;19959;-75
2021/10/26 05:37:12;;;;;;;;;;;;;;;7.27;86.88;97043.19;5073616;28;19955;-77
2021/10/26 05:39:39;;;;;;;;;;;;;;;7.28;86.78;97031.75;5073398;28;19956;-75
2021/10/26 05:42:05;;;;;;;;;;;;;;;7.29;87.15;97033.38;5073414;28;19958;-75
2021/10/26 05:44:31;;;;;;;;;;;;;;;7.30;87.12;97038.38;5073347;28;19964;-75
2021/10/26 05:46:57;;;;;;;;;;;;;;;7.31;87.41;97044.44;5073551;28;19958;-76
2021/10/26 05:49:23;;;;;;;;;;;;;;;7.32;87.55;97040.81;5073430;28;19956;-75
2021/10/26 05:51:49;;;;;;;;;;;;;;;7.34;87.72;97041.44;5072036;28;19979;-75
2021/10/26 05:54:15;;;;;;;;;;;;;;;7.36;87.53;97046.50;5073374;28;20067;-75
2021/10/26 05:56:41;;;;;;;;;;;;;;;7.37;87.69;97043.72;5073144;28;20457;-75
2021/10/26 05:59:07;;;;;;;;;;;;;;;7.40;87.55;97043.34;5073336;28;19954;-75
2021/10/26 06:01:33;;;;;;;;;;;;;;;7.41;87.80;97050.19;5073140;28;20464;-76
2021/10/26 06:04:01;;;;;;;;;;;;;;;7.43;87.78;97052.59;5073739;28;20399;-75
2021/10/26 06:06:28;;;;;;;;;;;;;;;7.44;87.68;97056.84;5073237;28;19954;-76
2021/10/26 06:08:53;;;;;;;;;;;;;;;7.45;87.72;97061.84;5073327;28;19963;-77
2021/10/26 06:11:22;;;;;;;;;;;;;;;7.46;87.92;97060.88;5073398;28;19954;-76
2021/10/26 06:13:59;;;;;;;;;;;;;;;7.47;88.16;97059.06;5072744;28;19965;-76
2021/10/26 06:16:26;;;;;;;;;;;;;;;7.46;88.12;97070.50;5073242;28;20315;-76
2021/10/26 06:18:52;;;;;;;;;;;;;;;7.47;88.10;97064.28;5073168;28;19957;-77
2021/10/26 06:21:19;;;;;;;;;;;;;;;7.47;87.73;97072.91;5063048;28;19959;-76
2021/10/26 06:23:45;;;;;;;;;;;;;;;7.50;87.53;97076.97;5073039;28;20451;-76
2021/10/26 06:26:11;;;;;;;;;;;;;;;7.50;87.53;97064.75;5072815;28;20000;-76
2021/10/26 06:28:37;;;;;;;;;;;;;;;7.51;88.19;97073.38;5073182;28;19958;-77
2021/10/26 06:31:05;;;;;;;;;;;;;;;7.52;88.45;97078.41;5072947;28;19954;-77
2021/10/26 06:33:31;;;;;;;;;;;;;;;7.52;87.96;97088.06;5073247;28;19973;-77
2021/10/26 06:35:57;;;;;;;;;;;;;;;7.53;87.78;97092.25;5072887;28;19960;-77
2021/10/26 06:38:23;;;;;;;;;;;;;;;7.56;87.93;97091.91;5072960;28;20413;-76
2021/10/26 06:40:49;;;;;;;;;;;;;;;7.58;88.22;97089.09;5072874;28;20046;-76
2021/10/26 06:43:15;;;;;;;;;;;;;;;7.60;88.33;97102.78;5075908;28;20408;-76
2021/10/26 06:45:41;;;;;;;;;;;;;;;7.63;88.07;97102.44;5076311;28;19962;-76
2021/10/26 06:48:10;;;;;;;;;;;;;;;7.64;88.07;97112.69;5076516;28;19953;-77
2021/10/26 06:50:36;;;;;;;;;;;;;;;7.67;88.06;97107.09;5067086;28;19963;-76
2021/10/26 06:53:02;;;;;;;;;;;;;;;7.71;88.39;97107.56;5076211;28;19985;-76
2021/10/26 06:55:28;;;;;;;;;;;;;;;7.73;88.10;97116.00;5076134;28;19973;-76
2021/10/26 06:57:54;;;;;;;;;;;;;;;7.76;88.43;97107.00;5077010;28;19975;-76
2021/10/26 07:00:20;;;;;;;;;;;;;;;7.78;88.71;97112.84;5076467;28;19955;-76
2021/10/26 07:02:53;;;;;;;;;;;;;;;7.81;89.13;97110.69;5076062;28;19971;-76
2021/10/26 07:05:21;;;;;;;;;;;;;;;7.83;89.15;97126.97;5076444;28;19964;-77
2021/10/26 07:07:47;;;;;;;;;;;;;;;7.86;89.39;97126.59;5067198;28;19956;-76
2021/10/26 07:10:13;;;;;;;;;;;;;;;7.87;90.29;97119.56;5075913;28;19979;-76
2021/10/26 07:12:40;;;;;;;;;;;;;;;7.91;89.26;97126.03;5076103;28;19986;-76
2021/10/26 07:15:08;;;;;;;;;;;;;;;7.94;89.32;97130.91;5075800;28;19975;-76
2021/10/26 07:17:35;;;;;;;;;;;;;;;7.99;89.29;97133.75;5075718;28;19956;-75
2021/10/26 07:20:03;;;;;;;;;;;;;;;8.04;89.47;97134.03;5075782;28;19955;-75
2021/10/26 07:22:29;;;;;;;;;;;;;;;8.10;89.17;97138.50;5075844;28;20418;-77
2021/10/26 07:25:01;;;;;;;;;;;;;;;8.18;89.36;97144.63;5076409;28;19985;-75
2021/10/26 07:27:29;;;;;;;;;;;;;;;8.26;89.36;97139.28;5080134;28;19957;-75
2021/10/26 07:29:59;;;;;;;;;;;;;;;8.36;93.51;97141.56;5075544;28;20422;-80
2021/10/26 07:32:25;;;;;;;;;;;;;;;8.62;94.61;97148.91;5075426;28;19974;-75
2021/10/26 07:34:51;;;;;;;;;;;;;;;8.71;90.10;97152.97;5075529;28;19973;-75
2021/10/26 07:37:21;;;;;;;;;;;;;;;8.80;89.83;97154.50;5075105;28;20344;-76
2021/10/26 07:39:48;;;;;;;;;;;;;;;8.79;87.50;97158.09;5074137;28;19951;-76
2021/10/26 07:42:15;;;;;;;;;;;;;;;8.72;86.89;97162.47;5075409;28;19960;-76
2021/10/26 07:44:41;;;;;;;;;;;;;;;8.67;86.94;97170.03;5074100;28;19963;-75
2021/10/26 07:47:07;;;;;;;;;;;;;;;8.64;87.30;97163.38;5075022;28;20413;-76
2021/10/26 07:49:33;;;;;;;;;;;;;;;8.64;87.23;97175.66;5075274;28;19971;-75
2021/10/26 07:52:01;;;;;;;;;;;;;;;8.64;87.49;97167.81;5074713;28;20361;-76
2021/10/26 07:54:27;;;;;;;;;;;;;;;8.64;88.12;97170.44;5074782;28;19955;-76
2021/10/26 07:56:53;;;;;;;;;;;;;;;8.69;89.82;97176.72;5075458;28;19953;-75
2021/10/26 07:59:20;;;;;;;;;;;;;;;8.83;89.99;97167.16;5074964;28;19957;-76
2021/10/26 08:01:47;;;;;;;;;;;;;;;9.05;89.79;97173.19;5074897;28;20406;-76
2021/10/26 08:04:14;;;;;;;;;;;;;;;9.28;88.94;97182.59;5074621;28;20423;-76
2021/10/26 08:06:45;;;;;;;;;;;;;;;9.45;88.74;97178.69;5074910;28;19951;-76
2021/10/26 08:09:11;;;;;;;;;;;;;;;9.60;87.73;97178.56;5074892;28;19949;-76
2021/10/26 08:11:43;;;;;;;;;;;;;;;9.70;86.80;97179.03;5074947;28;19953;-76
2021/10/26 08:14:14;;;;;;;;;;;;;;;9.77;85.15;97165.97;5059556;28;19967;-76
2021/10/26 08:16:43;;;;;;;;;;;;;;;9.78;84.43;97175.44;5074673;28;20327;-76
2021/10/26 08:19:09;;;;;;;;;;;;;;;9.84;84.64;97177.28;5074504;28;20450;-76
2021/10/26 08:21:36;;;;;;;;;;;;;;;9.89;83.73;97176.69;5074410;28;20008;-76
2021/10/26 08:24:02;;;;;;;;;;;;;;;9.84;83.72;97177.28;5075027;28;19967;-76
2021/10/26 08:26:38;;;;;;;;;;;;;;;9.82;84.44;97176.66;5074683;28;20336;-76
2021/10/26 08:29:44;;;;;;;;;;;;;;;9.86;85.28;97183.13;5074594;28;19960;-76
2021/10/26 08:37:07;;;;;;;;;;;;;;;9.93;83.40;97183.97;5074354;28;19961;-75
2021/10/26 08:39:36;;;;;;;;;;;;;;;9.92;83.07;97179.72;5073980;28;19957;-76
2021/10/26 08:42:02;;;;;;;;;;;;;;;9.93;83.39;97183.97;5074235;28;19962;-75
2021/10/26 08:44:28;;;;;;;;;;;;;;;9.98;84.42;97183.38;5074362;28;19957;-75
2021/10/26 08:46:54;;;;;;;;;;;;;;;10.01;83.92;97182.97;5073941;28;19978;-75
2021/10/26 08:49:23;;;;;;;;;;;;;;;10.05;83.50;97176.34;5074018;28;20431;-75
2021/10/26 08:51:52;;;;;;;;;;;;;;;10.07;83.13;97178.78;5073887;28;20068;-75
2021/10/26 08:54:18;;;;;;;;;;;;;;;10.07;83.33;97176.97;5073804;28;19978;-75
2021/10/26 08:56:47;;;;;;;;;;;;;;;10.07;84.36;97171.72;5073986;28;19958;-75
2021/10/26 08:59:17;;;;;;;;;;;;;;;10.10;84.50;97170.50;5074073;28;19956;-75
2021/10/26 09:01:45;;;;;;;;;;;;;;;10.17;84.41;97171.34;5073770;28;20427;-75
2021/10/26 09:04:11;;;;;;;;;;;;;;;10.24;83.79;97160.88;5073784;28;19959;-75
2021/10/26 09:06:47;;;;;;;;;;;;;;;10.30;83.75;97165.38;5073701;28;19957;-75
2021/10/26 09:09:14;;;;;;;;;;;;;;;10.36;84.06;97169.81;5073562;28;19948;-75
2021/10/26 09:17:26;;;;;;;;;;;;;;;10.58;84.42;97165.22;5066002;28;20432;-75
2021/10/26 09:19:53;;;;;;;;;;;;;;;10.67;84.73;97161.41;5073666;28;19965;-75
2021/10/26 09:22:18;;;;;;;;;;;;;;;10.83;84.54;97160.19;5074085;28;19968;-74
2021/10/26 09:24:55;;;;;;;;;;;;;;;11.07;84.45;97161.41;5073511;28;19974;-74
2021/10/26 09:27:21;;;;;;;;;;;;;;;11.23;82.89;97162.00;5061785;28;20446;-75
2021/10/26 09:29:48;;;;;;;;;;;;;;;11.31;81.98;97167.81;5073481;28;19956;-75
2021/10/26 09:32:16;;;;;;;;;;;;;;;11.42;82.42;97162.97;5073375;28;19970;-75
2021/10/26 09:35:03;;;;;;;;;;;;;;;11.49;81.70;97167.19;5073435;28;19972;-75
2021/10/26 09:37:53;;;;;;;;;;;;;;;11.57;82.01;97171.44;5073149;28;19958;-77
2021/10/26 09:40:19;;;;;;;;;;;;;;;11.68;82.41;97162.09;5066906;28;19960;-75
2021/10/26 09:42:49;;;;;;;;;;;;;;;11.82;81.51;97168.91;5073327;28;19968;-75
2021/10/26 09:45:24;;;;;;;;;;;;;;;11.97;81.16;97172.13;5073406;28;19952;-75
2021/10/26 09:47:52;;;;;;;;;;;;;;;12.15;80.56;97162.75;5073211;28;19965;-75
2021/10/26 09:50:18;;;;;;;;;;;;;;;12.23;79.25;97170.41;5073397;28;19955;-75
2021/10/26 09:52:47;;;;;;;;;;;;;;;12.19;78.80;97166.56;5073116;28;19981;-75
2021/10/26 09:57:40;;;;;;;;;;;;;;;12.18;80.17;97176.28;5073219;28;20330;-75
2021/10/26 10:00:07;;;;;;;;;;;;;;;12.17;79.31;97182.56;5073368;28;20337;-75
2021/10/26 10:02:35;;;;;;;;;;;;;;;12.15;80.13;97176.69;5073226;28;20443;-75
2021/10/26 10:05:05;;;;;;;;;;;;;;;12.17;80.21;97179.13;5073206;28;19958;-75
2021/10/26 10:07:36;;;;;;;;;;;;;;;12.14;80.15;97182.97;5073326;28;19960;-76
2021/10/26 10:10:11;;;;;;;;;;;;;;;12.15;80.40;97171.44;5059958;28;19961;-75
2021/10/26 10:12:42;;;;;;;;;;;;;;;12.16;79.88;97175.69;5072865;28;19965;-75
2021/10/26 10:15:09;;;;;;;;;;;;;;;12.14;79.62;97169.03;5073234;28;19966;-75
2021/10/26 10:17:36;;;;;;;;;;;;;;;12.10;79.96;97173.09;5075134;28;19962;-75
2021/10/26 10:20:06;;;;;;;;;;;;;;;12.09;80.71;97172.28;5076842;28;19954;-75
2021/10/26 10:22:33;;;;;;;;;;;;;;;12.08;80.31;97170.66;5077090;28;19956;-75
2021/10/26 10:25:00;;;;;;;;;;;;;;;12.11;81.09;97174.69;5076732;28;19958;-75
2021/10/26 10:27:27;;;;;;;;;;;;;;;12.12;80.57;97169.25;5076754;28;19958;-75
2021/10/26 10:29:53;;;;;;;;;;;;;;;12.17;80.14;97176.50;5076481;28;19962;-75
2021/10/26 10:32:23;;;;;;;;;;;;;;;12.27;80.70;97176.06;5076724;28;20026;-75
2021/10/26 10:34:50;;;;;;;;;;;;;;;12.35;80.29;97175.81;5076474;28;19982;-75
2021/10/26 10:37:16;;;;;;;;;;;;;;;12.51;80.67;97171.84;5076944;28;19952;-76
2021/10/26 10:39:43;;;;;;;;;;;;;;;12.60;78.04;97167.97;5076726;28;19964;-75
2021/10/26 10:42:14;;;;;;;;;;;;;;;12.70;78.47;97176.16;5076350;28;19977;-76
2021/10/26 10:44:40;;;;;;;;;;;;;;;12.76;76.58;97164.78;5076503;28;20360;-75
2021/10/26 10:47:11;;;;;;;;;;;;;;;12.82;76.39;97163.13;5076543;28;20401;-76
2021/10/26 10:49:37;;;;;;;;;;;;;;;12.91;77.06;97168.94;5076854;28;19962;-75
2021/10/26 10:52:20;;;;;;;;;;;;;;;12.96;76.02;97162.03;5076088;28;20028;-75
2021/10/26 10:54:53;;;;;;;;;;;;;;;12.95;76.47;97160.41;5076328;28;19973;-75
2021/10/26 10:57:21;;;;;;;;;;;;;;;13.00;76.83;97157.13;5062296;28;19959;-75
2021/10/26 10:59:47;;;;;;;;;;;;;;;13.01;74.10;97158.75;5076712;28;19961;-75
2021/10/26 11:02:26;;;;;;;;;;;;;;;13.06;73.45;97153.66;5076286;28;20033;-75
2021/10/26 11:04:54;;;;;;;;;;;;;;;13.11;72.84;97153.78;5076217;28;19960;-75
2021/10/26 11:07:39;;;;;;;;;;;;;;;13.14;73.91;97163.06;5075925;28;20436;-75
2021/10/26 11:10:05;;;;;;;;;;;;;;;13.16;72.43;97159.19;5075850;28;19955;-75
2021/10/26 11:12:32;;;;;;;;;;;;;;;13.20;71.90;97154.31;5076171;28;20345;-75
2021/10/26 11:15:00;;;;;;;;;;;;;;;13.20;71.58;97162.22;5076142;28;19975;-75
2021/10/26 11:17:49;;;;;;;;;;;;;;;13.21;72.78;97153.31;5075617;28;20458;-75
2021/10/26 11:20:27;;;;;;;;;;;;;;;13.23;72.43;97151.25;5076038;28;19964;-75
2021/10/26 11:22:53;;;;;;;;;;;;;;;13.26;72.39;97153.44;5065984;28;20328;-75
2021/10/26 11:25:22;;;;;;;;;;;;;;;13.27;72.69;97149.81;5075830;28;20049;-75
2021/10/26 11:27:48;;;;;;;;;;;;;;;13.30;72.25;97148.59;5075093;28;20327;-75
2021/10/26 11:30:32;;;;;;;;;;;;;;;13.33;72.32;97148.97;5075278;28;20411;-76
2021/10/26 11:33:14;;;;;;;;;;;;;;;13.38;71.74;97149.09;5075458;28;20446;-75
2021/10/26 11:35:47;;;;;;;;;;;;;;;13.42;70.90;97138.13;5075681;28;19954;-75
2021/10/26 11:38:14;;;;;;;;;;;;;;;13.45;71.95;97143.78;5075636;28;19957;-74
2021/10/26 11:40:59;;;;;;;;;;;;;;;13.48;70.50;97137.25;5075438;28;20328;-75
2021/10/26 11:43:25;;;;;;;;;;;;;;;13.48;70.68;97147.78;5069201;28;19957;-75
2021/10/26 11:46:13;;;;;;;;;;;;;;;13.48;68.48;97134.63;5062296;28;19953;-74
2021/10/26 11:48:42;;;;;;;;;;;;;;;13.51;70.55;97145.53;5074946;28;19965;-75
2021/10/26 11:51:26;;;;;;;;;;;;;;;13.56;69.23;97142.22;5064901;28;19956;-76
2021/10/26 11:53:54;;;;;;;;;;;;;;;13.60;70.14;97153.94;5075425;28;19984;-75
2021/10/26 11:56:28;;;;;;;;;;;;;;;13.59;68.15;97144.44;5074931;28;19957;-74
2021/10/26 11:59:05;;;;;;;;;;;;;;;13.60;69.64;97149.47;5075193;28;19968;-75
2021/10/26 12:01:40;;;;;;;;;;;;;;;13.63;70.05;97142.16;5075134;28;19967;-75
2021/10/26 12:04:16;;;;;;;;;;;;;;;13.71;69.16;97149.78;5063843;28;19965;-75
2021/10/26 12:06:43;;;;;;;;;;;;;;;13.72;66.64;97138.22;5074811;28;19957;-75
2021/10/26 12:09:16;;;;;;;;;;;;;;;13.74;68.48;97147.50;5074905;28;19955;-75
2021/10/26 12:11:46;;;;;;;;;;;;;;;13.74;68.01;97142.25;5074989;28;20424;-74
2021/10/26 12:14:17;;;;;;;;;;;;;;;13.76;68.57;97147.28;5074468;28;19978;-75
2021/10/26 12:17:01;;;;;;;;;;;;;;;13.75;67.19;97135.94;5074736;28;19958;-75
2021/10/26 12:19:28;;;;;;;;;;;;;;;13.80;68.14;97132.66;5073527;28;19956;-74
2021/10/26 12:21:57;;;;;;;;;;;;;;;13.83;68.56;97136.66;5074448;28;20435;-75
2021/10/26 12:24:24;;;;;;;;;;;;;;;13.83;67.54;97141.94;5074792;28;19961;-75
2021/10/26 12:27:01;;;;;;;;;;;;;;;13.83;67.34;97134.03;5074807;28;20435;-76
2021/10/26 12:29:29;;;;;;;;;;;;;;;13.82;69.32;97141.16;5067228;28;19978;-75
2021/10/26 12:31:55;;;;;;;;;;;;;;;13.80;66.69;97127.38;5074757;28;19960;-75
2021/10/26 12:34:21;;;;;;;;;;;;;;;13.76;66.51;97121.72;5074442;28;20345;-75
2021/10/26 12:36:47;;;;;;;;;;;;;;;13.76;68.04;97137.53;5074545;28;19966;-75
2021/10/26 12:39:22;;;;;;;;;;;;;;;13.78;67.48;97137.34;5073842;28;20429;-75
2021/10/26 12:41:48;;;;;;;;;;;;;;;13.77;66.17;97126.00;5074356;28;19959;-75
2021/10/26 12:44:18;;;;;;;;;;;;;;;13.76;66.74;97134.91;5074410;28;19961;-74
2021/10/26 12:46:44;;;;;;;;;;;;;;;13.78;68.00;97134.69;5074120;28;19964;-75
2021/10/26 12:49:15;;;;;;;;;;;;;;;13.95;73.82;97140.97;5074163;28;19962;-76
2021/10/26 12:51:42;;;;;;;;;;;;;;;14.41;72.21;97136.09;5073765;28;19964;-76
2021/10/26 12:54:17;;;;;;;;;;;;;;;14.87;70.06;97133.84;5073807;28;19987;-77
2021/10/26 12:56:46;;;;;;;;;;;;;;;15.23;67.35;97130.16;5074687;28;19963;-77
2021/10/26 12:59:17;;;;;;;;;;;;;;;15.51;66.93;97126.00;5073860;28;19961;-76
2021/10/26 13:01:47;;;;;;;;;;;;;;;15.73;65.66;97121.72;5074079;28;19954;-78
2021/10/26 13:04:22;;;;;;;;;;;;;;;15.92;66.04;97129.50;5073912;28;19955;-77
2021/10/26 13:06:52;;;;;;;;;;;;;;;16.08;64.78;97120.78;5073611;28;19959;-76
2021/10/26 13:09:22;;;;;;;;;;;;;;;16.15;64.99;97124.13;5073695;28;19953;-74